Time,TemperatureF,DewpointF,PressureIn,WindDirection,WindDirectionDegrees,WindSpeedMPH,WindSpeedGustMPH,Humidity,HourlyPrecipIn,Conditions,Clouds,dailyrainin,SoftwareType,DateUTC
2013-05-16 00:01:00,59.9,54.1,29.72,West,269,2.7,3.6,81,0.00,,CLR,0.00,VWS V13.00,2013-05-16 04:01:00,
2013-05-16 00:02:00,59.9,54.1,29.72,West,269,0.0,3.6,81,0.00,,CLR,0.00,VWS V13.00,2013-05-16 04:02:00,
2013-05-16 00:03:00,59.9,54.1,29.72,West,269,0.0,3.6,81,0.00,,CLR,0.00,VWS V13.00,2013-05-16 04:03:00,
2013-05-16 00:08:00,59.7,53.9,29.72,West,275,0.0,3.6,81,0.00,,CLR,0.00,VWS V13.00,2013-05-16 04:08:00,
2013-05-16 00:13:00,59.7,53.9,29.72,West,275,2.7,3.6,81,0.00,,CLR,0.00,VWS V13.00,2013-05-16 04:13:00,
2013-05-16 00:18:00,59.7,53.9,29.72,West,275,3.1,3.6,81,0.00,,CLR,0.00,VWS V13.00,2013-05-16 04:18:00,
2013-05-16 00:23:00,59.5,54.0,29.72,West,275,0.0,2.7,82,0.00,,CLR,0.00,VWS V13.00,2013-05-16 04:23:00,
2013-05-16 00:28:00,59.2,53.4,29.72,West,275,0.0,2.7,81,0.00,,CLR,0.00,VWS V13.00,2013-05-16 04:28:00,
2013-05-16 00:33:00,58.6,52.8,29.72,West,275,0.0,2.7,81,0.00,,CLR,0.00,VWS V13.00,2013-05-16 04:33:00,
2013-05-16 00:38:00,58.3,52.5,29.72,West,275,0.0,2.7,81,0.00,,CLR,0.00,VWS V13.00,2013-05-16 04:38:00,
2013-05-16 00:43:00,58.3,52.5,29.72,West,275,2.7,3.6,81,0.00,,CLR,0.00,VWS V13.00,2013-05-16 04:43:00,
2013-05-16 00:48:00,58.1,52.6,29.72,West,275,3.1,4.0,82,0.00,,CLR,0.00,VWS V13.00,2013-05-16 04:48:00,
2013-05-16 00:53:00,58.3,53.2,29.72,West,271,4.0,4.0,83,0.00,,CLR,0.00,VWS V13.00,2013-05-16 04:53:00,
2013-05-16 00:58:00,58.3,53.2,29.72,West,271,3.1,4.0,83,0.00,,CLR,0.00,VWS V13.00,2013-05-16 04:58:00,
2013-05-16 01:03:00,58.3,53.2,29.72,West,271,2.2,3.1,83,0.00,,CLR,0.00,VWS V13.00,2013-05-16 05:03:00,
2013-05-16 01:09:00,58.1,53.0,29.72,West,271,0.0,4.0,83,0.00,,CLR,0.00,VWS V13.00,2013-05-16 05:09:00,
2013-05-16 01:14:00,58.1,53.0,29.72,West,271,2.7,4.0,83,0.00,,CLR,0.00,VWS V13.00,2013-05-16 05:14:00,
2013-05-16 01:19:00,58.1,53.0,29.72,West,271,0.0,4.0,83,0.00,,CLR,0.00,VWS V13.00,2013-05-16 05:19:00,
2013-05-16 01:24:00,58.1,53.0,29.72,West,271,0.0,0.0,83,0.00,,CLR,0.00,VWS V13.00,2013-05-16 05:24:00,
2013-05-16 01:29:00,58.1,53.0,29.72,West,271,3.1,3.1,83,0.00,,CLR,0.00,VWS V13.00,2013-05-16 05:29:00,
2013-05-16 01:34:00,58.1,53.0,29.72,West,271,0.0,3.1,83,0.00,,CLR,0.00,VWS V13.00,2013-05-16 05:34:00,
2013-05-16 01:39:00,58.1,53.0,29.72,West,271,2.7,3.6,83,0.00,,,0.00,VWS V13.00,2013-05-16 05:39:00,
2013-05-16 01:44:00,57.0,52.2,29.72,West,271,2.7,3.1,84,0.00,,,0.00,VWS V13.00,2013-05-16 05:44:00,
2013-05-16 01:49:00,56.8,52.1,29.72,West,271,0.0,3.1,84,0.00,,,0.00,VWS V13.00,2013-05-16 05:49:00,
2013-05-16 01:54:00,56.8,52.1,29.72,West,271,2.2,3.1,84,0.00,,,0.00,VWS V13.00,2013-05-16 05:54:00,
2013-05-16 01:59:00,56.8,52.1,29.72,West,271,2.7,3.1,84,0.00,,,0.00,VWS V13.00,2013-05-16 05:59:00,
2013-05-16 02:04:00,57.2,52.7,29.72,West,271,0.0,2.2,85,0.00,,,0.00,VWS V13.00,2013-05-16 06:04:00,
2013-05-16 02:09:00,57.2,52.7,29.72,West,271,2.2,3.6,85,0.00,,,0.00,VWS V13.00,2013-05-16 06:09:00,
2013-05-16 02:14:00,57.2,52.7,29.72,West,271,2.2,3.6,85,0.00,,,0.00,VWS V13.00,2013-05-16 06:14:00,
2013-05-16 02:19:00,57.2,52.7,29.72,West,271,0.0,3.6,85,0.00,,,0.00,VWS V13.00,2013-05-16 06:19:00,
2013-05-16 02:24:00,57.2,52.7,29.72,West,271,0.0,0.0,85,0.00,,,0.00,VWS V13.00,2013-05-16 06:24:00,
2013-05-16 02:29:00,57.2,52.7,29.72,West,271,0.0,0.0,85,0.00,,,0.00,VWS V13.00,2013-05-16 06:29:00,
2013-05-16 02:34:00,56.8,52.7,29.72,West,271,0.0,0.0,86,0.00,,,0.00,VWS V13.00,2013-05-16 06:34:00,
2013-05-16 02:39:00,56.8,52.7,29.72,West,271,0.0,0.0,86,0.00,,,0.00,VWS V13.00,2013-05-16 06:39:00,
2013-05-16 02:44:00,56.8,52.7,29.72,West,271,0.0,0.0,86,0.00,,,0.00,VWS V13.00,2013-05-16 06:44:00,
2013-05-16 02:50:00,56.7,52.8,29.72,West,271,2.7,4.0,87,0.00,,,0.00,VWS V13.00,2013-05-16 06:50:00,
2013-05-16 02:55:00,56.7,52.8,29.72,WSW,257,0.0,4.0,87,0.00,,,0.00,VWS V13.00,2013-05-16 06:55:00,
2013-05-16 03:00:00,56.7,52.8,29.72,WSW,257,0.0,4.0,87,0.00,,,0.00,VWS V13.00,2013-05-16 07:00:00,
2013-05-16 03:05:00,56.1,52.0,29.72,WSW,257,0.0,2.7,86,0.00,,,0.00,VWS V13.00,2013-05-16 07:05:00,
2013-05-16 03:10:00,56.1,52.0,29.72,WSW,257,0.0,2.7,86,0.00,,,0.00,VWS V13.00,2013-05-16 07:10:00,
2013-05-16 03:15:00,56.1,52.0,29.72,WSW,257,0.0,2.7,86,0.00,,,0.00,VWS V13.00,2013-05-16 07:15:00,
2013-05-16 03:20:00,56.1,52.0,29.72,WSW,257,0.0,2.7,86,0.00,,,0.00,VWS V13.00,2013-05-16 07:20:00,
2013-05-16 03:25:00,56.1,52.3,29.72,WSW,257,0.0,0.0,87,0.00,,,0.00,VWS V13.00,2013-05-16 07:25:00,
2013-05-16 03:30:00,55.9,52.1,29.72,WSW,257,0.0,0.0,87,0.00,,,0.00,VWS V13.00,2013-05-16 07:30:00,
2013-05-16 03:35:00,55.6,51.5,29.72,WSW,257,0.0,0.0,86,0.00,,,0.00,VWS V13.00,2013-05-16 07:35:00,
2013-05-16 03:40:00,55.6,51.5,29.72,WSW,257,0.0,0.0,86,0.00,,,0.00,VWS V13.00,2013-05-16 07:40:00,
2013-05-16 03:45:00,55.6,51.8,29.72,WSW,257,0.0,0.0,87,0.00,,,0.00,VWS V13.00,2013-05-16 07:45:00,
2013-05-16 03:50:00,55.4,51.6,29.72,WSW,257,0.0,0.0,87,0.00,,,0.00,VWS V13.00,2013-05-16 07:50:00,
2013-05-16 03:55:00,55.2,51.4,29.72,WSW,257,0.0,0.0,87,0.00,,,0.00,VWS V13.00,2013-05-16 07:55:00,
2013-05-16 04:00:00,55.0,51.2,29.72,WSW,257,0.0,0.0,87,0.00,,,0.00,VWS V13.00,2013-05-16 08:00:00,
2013-05-16 04:05:00,55.2,51.4,29.72,WSW,257,0.0,0.0,87,0.00,,,0.00,VWS V13.00,2013-05-16 08:05:00,
2013-05-16 04:11:00,55.4,51.6,29.72,WSW,257,0.0,0.0,87,0.00,,,0.00,VWS V13.00,2013-05-16 08:11:00,
2013-05-16 04:16:00,55.2,51.7,29.72,WSW,257,0.0,0.0,88,0.00,,,0.00,VWS V13.00,2013-05-16 08:16:00,
2013-05-16 04:21:00,55.4,51.9,29.72,WSW,257,0.0,0.0,88,0.00,,,0.00,VWS V13.00,2013-05-16 08:21:00,
2013-05-16 04:26:00,55.4,51.9,29.72,WSW,257,0.0,0.0,88,0.00,,,0.00,VWS V13.00,2013-05-16 08:26:00,
2013-05-16 04:31:00,55.4,51.9,29.72,WSW,257,0.0,0.0,88,0.00,,,0.00,VWS V13.00,2013-05-16 08:31:00,
2013-05-16 04:36:00,55.4,52.2,29.72,WSW,257,0.0,0.0,89,0.00,,,0.00,VWS V13.00,2013-05-16 08:36:00,
2013-05-16 04:41:00,55.2,52.0,29.72,WSW,257,0.0,0.0,89,0.00,,,0.00,VWS V13.00,2013-05-16 08:41:00,
2013-05-16 04:46:00,54.9,51.7,29.72,WSW,257,0.0,0.0,89,0.00,,,0.00,VWS V13.00,2013-05-16 08:46:00,
2013-05-16 04:51:00,54.7,51.2,29.72,WSW,257,0.0,0.0,88,0.00,,,0.00,VWS V13.00,2013-05-16 08:51:00,
2013-05-16 04:56:00,54.5,51.0,29.72,WSW,257,0.0,0.0,88,0.00,,,0.00,VWS V13.00,2013-05-16 08:56:00,
2013-05-16 05:01:00,54.5,51.0,29.72,WSW,257,0.0,0.0,88,0.00,,,0.00,VWS V13.00,2013-05-16 09:01:00,
2013-05-16 05:06:00,54.3,50.8,29.72,WSW,257,0.0,0.0,88,0.00,,,0.00,VWS V13.00,2013-05-16 09:06:00,
2013-05-16 05:11:00,54.1,50.7,29.72,WSW,257,0.0,0.0,88,0.00,,,0.00,VWS V13.00,2013-05-16 09:11:00,
2013-05-16 05:16:00,53.8,50.3,29.72,WSW,257,0.0,0.0,88,0.00,,,0.00,VWS V13.00,2013-05-16 09:16:00,
2013-05-16 05:21:00,53.2,49.8,29.72,WSW,257,0.0,0.0,88,0.00,,,0.00,VWS V13.00,2013-05-16 09:21:00,
2013-05-16 05:26:00,52.9,49.1,29.72,WSW,257,0.0,0.0,87,0.00,,,0.00,VWS V13.00,2013-05-16 09:26:00,
2013-05-16 05:32:00,52.7,49.0,29.72,WSW,257,0.0,0.0,87,0.00,,,0.00,VWS V13.00,2013-05-16 09:32:00,
2013-05-16 05:37:00,52.7,49.0,29.72,WSW,257,0.0,0.0,87,0.00,,,0.00,VWS V13.00,2013-05-16 09:37:00,
2013-05-16 05:42:00,53.1,49.3,29.72,WSW,257,0.0,0.0,87,0.00,,,0.00,VWS V13.00,2013-05-16 09:42:00,
2013-05-16 05:47:00,53.1,49.6,29.72,WSW,257,0.0,0.0,88,0.00,,,0.00,VWS V13.00,2013-05-16 09:47:00,
2013-05-16 05:52:00,52.7,49.0,29.75,WSW,257,0.0,0.0,87,0.00,,,0.00,VWS V13.00,2013-05-16 09:52:00,
2013-05-16 05:57:00,52.3,48.6,29.75,WSW,257,0.0,0.0,87,0.00,,,0.00,VWS V13.00,2013-05-16 09:57:00,
2013-05-16 06:02:00,52.3,48.6,29.75,WSW,257,0.0,0.0,87,0.00,,,0.00,VWS V13.00,2013-05-16 10:02:00,
2013-05-16 06:07:00,52.3,48.6,29.75,WSW,257,0.0,0.0,87,0.00,,,0.00,VWS V13.00,2013-05-16 10:07:00,
2013-05-16 06:12:00,52.3,48.6,29.75,WSW,257,0.0,0.0,87,0.00,,,0.00,VWS V13.00,2013-05-16 10:12:00,
2013-05-16 06:17:00,52.0,48.2,29.75,WSW,257,0.0,0.0,87,0.00,,,0.00,VWS V13.00,2013-05-16 10:17:00,
2013-05-16 06:22:00,52.2,48.4,29.75,WSW,257,0.0,0.0,87,0.00,,,0.00,VWS V13.00,2013-05-16 10:22:00,
2013-05-16 06:27:00,52.3,48.6,29.75,WSW,257,0.0,0.0,87,0.00,,,0.00,VWS V13.00,2013-05-16 10:27:00,
2013-05-16 06:32:00,52.7,49.0,29.75,WSW,257,0.0,0.0,87,0.00,,,0.00,VWS V13.00,2013-05-16 10:32:00,
2013-05-16 06:37:00,52.7,49.0,29.78,WSW,257,0.0,0.0,87,0.00,,,0.00,VWS V13.00,2013-05-16 10:37:00,
2013-05-16 06:43:00,52.7,49.0,29.78,WSW,257,0.0,0.0,87,0.00,,,0.00,VWS V13.00,2013-05-16 10:43:00,
2013-05-16 06:48:00,52.7,49.0,29.78,WSW,257,0.0,0.0,87,0.00,,,0.00,VWS V13.00,2013-05-16 10:48:00,
2013-05-16 06:53:00,53.6,49.8,29.78,WSW,257,0.0,0.0,87,0.00,,,0.00,VWS V13.00,2013-05-16 10:53:00,
2013-05-16 06:58:00,53.8,50.3,29.78,WSW,257,0.0,0.0,88,0.00,,,0.00,VWS V13.00,2013-05-16 10:58:00,
2013-05-16 07:03:00,53.8,50.3,29.78,WSW,257,0.0,0.0,88,0.00,,,0.00,VWS V13.00,2013-05-16 11:03:00,
2013-05-16 07:08:00,53.8,50.3,29.78,WSW,257,0.0,0.0,88,0.00,,,0.00,VWS V13.00,2013-05-16 11:08:00,
2013-05-16 07:13:00,53.8,50.3,29.78,WSW,257,0.0,0.0,88,0.00,,,0.00,VWS V13.00,2013-05-16 11:13:00,
2013-05-16 07:18:00,53.8,50.3,29.78,WSW,257,0.0,0.0,88,0.00,,,0.00,VWS V13.00,2013-05-16 11:18:00,
2013-05-16 07:23:00,53.8,50.3,29.78,WSW,257,0.0,0.0,88,0.00,,,0.00,VWS V13.00,2013-05-16 11:23:00,
2013-05-16 07:28:00,53.8,50.3,29.78,WSW,257,0.0,0.0,88,0.00,,,0.00,VWS V13.00,2013-05-16 11:28:00,
2013-05-16 07:33:00,53.8,50.3,29.78,WSW,257,0.0,0.0,88,0.00,,,0.00,VWS V13.00,2013-05-16 11:33:00,
2013-05-16 07:38:00,57.0,54.1,29.78,WSW,257,0.0,0.0,90,0.00,,,0.00,VWS V13.00,2013-05-16 11:38:00,
2013-05-16 07:43:00,57.0,54.1,29.78,WSW,257,0.0,0.0,90,0.00,,,0.00,VWS V13.00,2013-05-16 11:43:00,
2013-05-16 07:48:00,57.0,54.1,29.78,WSW,257,0.0,0.0,90,0.00,,,0.00,VWS V13.00,2013-05-16 11:48:00,
2013-05-16 07:54:00,57.0,54.1,29.78,WSW,257,0.0,0.0,90,0.00,,,0.00,VWS V13.00,2013-05-16 11:54:00,
2013-05-16 07:59:00,57.0,54.1,29.78,WSW,257,0.0,0.0,90,0.00,,,0.00,VWS V13.00,2013-05-16 11:59:00,
2013-05-16 08:04:00,57.0,54.1,29.78,WSW,257,0.0,0.0,90,0.00,,,0.00,VWS V13.00,2013-05-16 12:04:00,
2013-05-16 08:09:00,57.0,54.1,29.78,WSW,257,0.0,0.0,90,0.00,,,0.00,VWS V13.00,2013-05-16 12:09:00,
2013-05-16 08:14:00,57.0,54.1,29.78,WSW,257,0.0,0.0,90,0.00,,,0.00,VWS V13.00,2013-05-16 12:14:00,
2013-05-16 08:19:00,57.0,54.1,29.78,WSW,257,0.0,0.0,90,0.00,,,0.00,VWS V13.00,2013-05-16 12:19:00,
2013-05-16 08:24:00,57.0,54.1,29.78,WSW,257,0.0,0.0,90,0.00,,,0.00,VWS V13.00,2013-05-16 12:24:00,
2013-05-16 08:29:00,57.0,54.1,29.78,WSW,257,0.0,0.0,90,0.00,,,0.00,VWS V13.00,2013-05-16 12:29:00,
2013-05-16 08:34:00,57.0,54.1,29.78,WSW,257,0.0,0.0,90,0.00,,,0.00,VWS V13.00,2013-05-16 12:34:00,
2013-05-16 08:39:00,57.0,54.1,29.80,WSW,257,0.0,0.0,90,0.00,,,0.00,VWS V13.00,2013-05-16 12:39:00,
2013-05-16 08:44:00,57.0,54.1,29.80,WSW,257,0.0,0.0,90,0.00,,,0.00,VWS V13.00,2013-05-16 12:44:00,
2013-05-16 08:49:00,57.0,54.1,29.80,WSW,242,0.0,3.1,90,0.00,,,0.00,VWS V13.00,2013-05-16 12:49:00,
2013-05-16 08:54:00,57.0,54.1,29.80,WSW,242,0.0,3.1,90,0.00,,,0.00,VWS V13.00,2013-05-16 12:54:00,
2013-05-16 08:59:00,57.0,54.1,29.80,WSW,242,0.0,3.1,90,0.00,,,0.00,VWS V13.00,2013-05-16 12:59:00,
2013-05-16 09:04:00,57.0,54.1,29.80,WSW,242,0.0,0.0,90,0.00,,CLR,0.00,VWS V13.00,2013-05-16 13:04:00,
2013-05-16 09:09:00,57.0,54.1,29.80,WSW,242,0.0,0.0,90,0.00,,CLR,0.00,VWS V13.00,2013-05-16 13:09:00,
2013-05-16 09:14:00,57.0,54.1,29.80,WSW,242,0.0,0.0,90,0.00,,CLR,0.00,VWS V13.00,2013-05-16 13:14:00,
2013-05-16 09:20:00,57.0,54.1,29.80,WSW,242,0.0,0.0,90,0.00,,CLR,0.00,VWS V13.00,2013-05-16 13:20:00,
2013-05-16 09:25:00,57.0,54.1,29.80,WSW,242,0.0,0.0,90,0.00,,CLR,0.00,VWS V13.00,2013-05-16 13:25:00,
2013-05-16 09:30:00,62.6,54.9,29.80,WSW,242,0.0,0.0,76,0.00,,CLR,0.00,VWS V13.00,2013-05-16 13:30:00,
2013-05-16 09:35:00,63.1,55.1,29.80,WSW,242,0.0,0.0,75,0.00,,CLR,0.00,VWS V13.00,2013-05-16 13:35:00,
2013-05-16 09:40:00,63.5,55.4,29.78,WSW,242,0.0,0.0,75,0.00,,CLR,0.00,VWS V13.00,2013-05-16 13:40:00,
2013-05-16 09:45:00,64.0,56.0,29.78,WSW,242,0.0,0.0,75,0.00,,CLR,0.00,VWS V13.00,2013-05-16 13:45:00,
2013-05-16 09:50:00,64.9,56.1,29.78,WSW,242,0.0,0.0,73,0.00,,CLR,0.00,VWS V13.00,2013-05-16 13:50:00,
2013-05-16 09:55:00,65.5,55.5,29.78,WSW,242,0.0,2.7,70,0.00,,CLR,0.00,VWS V13.00,2013-05-16 13:55:00,
2013-05-16 10:00:00,65.8,52.9,29.78,WSW,239,0.0,5.4,63,0.00,,CLR,0.00,VWS V13.00,2013-05-16 14:00:00,
2013-05-16 10:05:00,66.2,51.0,29.78,SW,226,0.0,3.1,58,0.00,,CLR,0.00,VWS V13.00,2013-05-16 14:05:00,
2013-05-16 10:10:00,66.6,49.4,29.80,SW,229,0.0,5.8,54,0.00,,CLR,0.00,VWS V13.00,2013-05-16 14:10:00,
2013-05-16 10:15:00,67.1,49.4,29.80,WSW,243,0.0,5.8,53,0.00,,CLR,0.00,VWS V13.00,2013-05-16 14:15:00,
2013-05-16 10:20:00,67.6,49.4,29.80,WSW,250,0.0,0.0,52,0.00,,CLR,0.00,VWS V13.00,2013-05-16 14:20:00,
2013-05-16 10:25:00,68.0,49.2,29.80,SW,214,0.0,3.1,51,0.00,,CLR,0.00,VWS V13.00,2013-05-16 14:25:00,
2013-05-16 10:30:00,68.4,49.0,29.80,WNW,285,0.0,5.8,50,0.00,,CLR,0.00,VWS V13.00,2013-05-16 14:30:00,
2013-05-16 10:35:00,68.9,49.0,29.78,WSW,249,0.0,5.8,49,0.00,,CLR,0.00,VWS V13.00,2013-05-16 14:35:00,
2013-05-16 10:41:00,69.3,49.3,29.78,SW,236,0.0,3.1,49,0.00,,CLR,0.00,VWS V13.00,2013-05-16 14:41:00,
2013-05-16 10:46:00,68.9,47.9,29.78,SW,221,6.3,6.7,47,0.00,,CLR,0.00,VWS V13.00,2013-05-16 14:46:00,
2013-05-16 10:51:00,69.4,48.3,29.78,WSW,256,2.7,7.6,47,0.00,,CLR,0.00,VWS V13.00,2013-05-16 14:51:00,
2013-05-16 10:56:00,69.6,48.5,29.78,WSW,239,2.2,7.6,47,0.00,,CLR,0.00,VWS V13.00,2013-05-16 14:56:00,
2013-05-16 11:01:00,70.0,47.7,29.78,NNE,30,0.0,0.0,45,0.00,,CLR,0.00,VWS V13.00,2013-05-16 15:01:00,
2013-05-16 11:06:00,70.0,47.1,29.78,WSW,245,4.0,6.3,44,0.00,,CLR,0.00,VWS V13.00,2013-05-16 15:06:00,
2013-05-16 11:11:00,70.3,48.0,29.78,WSW,240,0.0,6.3,45,0.00,,CLR,0.00,VWS V13.00,2013-05-16 15:11:00,
2013-05-16 11:16:00,71.2,48.8,29.78,NW,317,0.0,6.3,45,0.00,,CLR,0.00,VWS V13.00,2013-05-16 15:16:00,
2013-05-16 11:21:00,71.2,47.6,29.78,WNW,292,2.7,5.8,43,0.00,,CLR,0.00,VWS V13.00,2013-05-16 15:21:00,
2013-05-16 11:26:00,71.8,48.7,29.78,West,279,5.8,5.8,44,0.00,,CLR,0.00,VWS V13.00,2013-05-16 15:26:00,
2013-05-16 11:31:00,71.8,47.5,29.78,WSW,247,5.8,5.8,42,0.00,,CLR,0.00,VWS V13.00,2013-05-16 15:31:00,
2013-05-16 11:36:00,72.1,47.2,29.78,West,264,0.0,6.3,41,0.00,,CLR,0.00,VWS V13.00,2013-05-16 15:36:00,
2013-05-16 11:41:00,72.7,47.7,29.78,West,270,0.0,5.4,41,0.00,,CLR,0.00,VWS V13.00,2013-05-16 15:41:00,
2013-05-16 11:46:00,73.0,48.0,29.78,West,265,0.0,5.4,41,0.00,,CLR,0.00,VWS V13.00,2013-05-16 15:46:00,
2013-05-16 11:51:00,73.2,47.5,29.78,WSW,247,2.7,7.6,40,0.00,,CLR,0.00,VWS V13.00,2013-05-16 15:51:00,
2013-05-16 11:57:00,73.4,47.0,29.78,SSE,167,3.6,7.6,39,0.00,,CLR,0.00,VWS V13.00,2013-05-16 15:57:00,
2013-05-16 12:02:00,73.6,46.4,29.78,WNW,286,4.0,4.0,38,0.00,,CLR,0.00,VWS V13.00,2013-05-16 16:02:00,
2013-05-16 12:07:00,73.9,46.0,29.78,West,266,4.9,8.1,37,0.00,,CLR,0.00,VWS V13.00,2013-05-16 16:07:00,
2013-05-16 12:12:00,74.1,44.8,29.78,WSW,253,5.4,8.1,35,0.00,,CLR,0.00,VWS V13.00,2013-05-16 16:12:00,
2013-05-16 12:17:00,73.9,44.6,29.78,SSW,213,2.7,8.3,35,0.00,,CLR,0.00,VWS V13.00,2013-05-16 16:17:00,
2013-05-16 12:22:00,74.5,45.1,29.78,NW,310,2.7,4.0,35,0.00,,CLR,0.00,VWS V13.00,2013-05-16 16:22:00,
2013-05-16 12:27:00,74.7,44.5,29.78,West,270,6.3,6.3,34,0.00,,CLR,0.00,VWS V13.00,2013-05-16 16:27:00,
2013-05-16 12:32:00,74.7,44.5,29.78,WSW,247,3.6,7.6,34,0.00,,CLR,0.00,VWS V13.00,2013-05-16 16:32:00,
2013-05-16 12:37:00,75.0,44.8,29.78,South,171,3.1,7.6,34,0.00,,CLR,0.00,VWS V13.00,2013-05-16 16:37:00,
2013-05-16 12:42:00,75.6,45.2,29.78,WSW,251,2.7,4.9,34,0.00,,CLR,0.00,VWS V13.00,2013-05-16 16:42:00,
2013-05-16 12:47:00,76.3,45.9,29.78,SW,217,3.1,5.4,34,0.00,,CLR,0.00,VWS V13.00,2013-05-16 16:47:00,
2013-05-16 12:52:00,77.0,46.5,29.78,South,176,2.7,5.4,34,0.00,,CLR,0.00,VWS V13.00,2013-05-16 16:52:00,
2013-05-16 12:57:00,77.4,46.0,29.78,WSW,238,6.3,6.3,33,0.00,,CLR,0.00,VWS V13.00,2013-05-16 16:57:00,
2013-05-16 13:02:00,77.5,46.2,29.78,SSW,192,2.7,3.6,33,0.00,,CLR,0.00,VWS V13.00,2013-05-16 17:02:00,
2013-05-16 13:07:00,78.6,47.1,29.78,South,186,4.0,4.9,33,0.00,,CLR,0.00,VWS V13.00,2013-05-16 17:07:00,
2013-05-16 13:13:00,79.0,46.6,29.78,SW,224,2.7,4.9,32,0.00,,CLR,0.00,VWS V13.00,2013-05-16 17:13:00,
2013-05-16 13:18:00,79.0,46.6,29.78,WNW,290,3.6,8.3,32,0.00,,CLR,0.00,VWS V13.00,2013-05-16 17:18:00,
2013-05-16 13:23:00,79.2,46.8,29.78,SSW,193,3.6,5.4,32,0.00,,CLR,0.00,VWS V13.00,2013-05-16 17:23:00,
2013-05-16 13:28:00,79.5,47.9,29.78,SW,233,0.0,5.4,33,0.00,,CLR,0.00,VWS V13.00,2013-05-16 17:28:00,
2013-05-16 13:33:00,79.5,47.9,29.78,SSW,193,3.6,6.3,33,0.00,,CLR,0.00,VWS V13.00,2013-05-16 17:33:00,
2013-05-16 13:38:00,79.9,48.2,29.75,SSE,161,3.6,6.3,33,0.00,,CLR,0.00,VWS V13.00,2013-05-16 17:38:00,
2013-05-16 13:43:00,79.7,48.1,29.75,West,270,3.1,6.3,33,0.00,,CLR,0.00,VWS V13.00,2013-05-16 17:43:00,
2013-05-16 13:48:00,79.9,47.4,29.75,South,178,2.7,6.3,32,0.00,,CLR,0.00,VWS V13.00,2013-05-16 17:48:00,
2013-05-16 13:53:00,79.2,46.8,29.75,West,260,0.0,8.7,32,0.00,,CLR,0.00,VWS V13.00,2013-05-16 17:53:00,
2013-05-16 13:58:00,79.5,47.1,29.75,West,276,4.0,8.7,32,0.00,,CLR,0.00,VWS V13.00,2013-05-16 17:58:00,
2013-05-16 14:03:00,79.5,47.1,29.75,SSW,200,0.0,5.4,32,0.00,,CLR,0.00,VWS V13.00,2013-05-16 18:03:00,
2013-05-16 14:08:00,79.7,47.3,29.75,WSW,243,3.6,6.3,32,0.00,,CLR,0.00,VWS V13.00,2013-05-16 18:08:00,
2013-05-16 14:13:00,79.9,48.2,29.75,WNW,292,3.6,8.1,33,0.00,,CLR,0.00,VWS V13.00,2013-05-16 18:13:00,
2013-05-16 14:18:00,79.5,47.1,29.75,South,182,2.7,8.3,32,0.00,,CLR,0.00,VWS V13.00,2013-05-16 18:18:00,
2013-05-16 14:23:00,79.7,47.3,29.75,South,189,3.1,6.3,32,0.00,,CLR,0.00,VWS V13.00,2013-05-16 18:23:00,
2013-05-16 14:29:00,80.2,47.7,29.75,SSW,208,2.7,6.3,32,0.00,,CLR,0.00,VWS V13.00,2013-05-16 18:29:00,
2013-05-16 14:34:00,80.4,47.9,29.75,South,191,4.5,8.1,32,0.00,,CLR,0.00,VWS V13.00,2013-05-16 18:34:00,
2013-05-16 14:39:00,80.6,48.0,29.75,South,181,5.4,8.1,32,0.00,,CLR,0.00,VWS V13.00,2013-05-16 18:39:00,
2013-05-16 14:44:00,80.4,48.7,29.75,West,266,2.2,5.4,33,0.00,,CLR,0.00,VWS V13.00,2013-05-16 18:44:00,
2013-05-16 14:49:00,80.2,47.7,29.75,SSW,210,3.6,8.3,32,0.00,,CLR,0.00,VWS V13.00,2013-05-16 18:49:00,
2013-05-16 14:54:00,80.8,48.2,29.75,SSW,196,2.7,8.3,32,0.00,,CLR,0.00,VWS V13.00,2013-05-16 18:54:00,
2013-05-16 14:59:00,81.3,48.7,29.75,WNW,283,4.0,8.3,32,0.00,,CLR,0.00,VWS V13.00,2013-05-16 18:59:00,
2013-05-16 15:04:00,81.5,48.8,29.75,SW,235,3.1,6.3,32,0.00,,CLR,0.00,VWS V13.00,2013-05-16 19:04:00,
2013-05-16 15:09:00,81.3,48.7,29.75,South,178,5.4,6.3,32,0.00,,CLR,0.00,VWS V13.00,2013-05-16 19:09:00,
2013-05-16 15:14:00,82.2,49.5,29.75,SW,233,2.7,6.3,32,0.00,,CLR,0.00,VWS V13.00,2013-05-16 19:14:00,
2013-05-16 15:19:00,81.5,48.8,29.75,SW,214,4.0,10.5,32,0.00,,CLR,0.00,VWS V13.00,2013-05-16 19:19:00,
2013-05-16 15:24:00,81.7,49.0,29.75,SSW,213,2.7,8.3,32,0.00,,CLR,0.00,VWS V13.00,2013-05-16 19:24:00,
2013-05-16 15:29:00,81.3,48.7,29.75,SSE,160,6.3,10.1,32,0.00,,CLR,0.00,VWS V13.00,2013-05-16 19:29:00,
2013-05-16 15:34:00,81.3,49.5,29.75,South,181,3.6,10.1,33,0.00,,FEW100,0.00,VWS V13.00,2013-05-16 19:34:00,
2013-05-16 15:39:00,81.5,49.7,29.75,South,180,3.6,10.1,33,0.00,,FEW100,0.00,VWS V13.00,2013-05-16 19:39:00,
2013-05-16 15:45:00,81.0,48.4,29.75,West,262,2.2,8.7,32,0.00,,FEW100,0.00,VWS V13.00,2013-05-16 19:45:00,
2013-05-16 15:50:00,81.3,48.7,29.75,West,278,3.1,8.7,32,0.00,,FEW100,0.00,VWS V13.00,2013-05-16 19:50:00,
2013-05-16 15:55:00,82.0,50.1,29.75,SW,220,2.7,8.7,33,0.00,,FEW100,0.00,VWS V13.00,2013-05-16 19:55:00,
2013-05-16 16:00:00,81.9,49.1,29.75,SSW,198,5.4,8.7,32,0.00,,FEW100,0.00,VWS V13.00,2013-05-16 20:00:00,
2013-05-16 16:05:00,80.8,48.2,29.75,SSW,194,2.7,6.3,32,0.00,,FEW100,0.00,VWS V13.00,2013-05-16 20:05:00,
2013-05-16 16:10:00,80.6,48.9,29.75,WSW,247,4.9,7.6,33,0.00,,FEW100,0.00,VWS V13.00,2013-05-16 20:10:00,
2013-05-16 16:15:00,81.3,49.5,29.75,SW,229,2.7,7.6,33,0.00,,FEW100,0.00,VWS V13.00,2013-05-16 20:15:00,
2013-05-16 16:20:00,81.7,49.0,29.75,West,271,8.1,8.7,32,0.00,,FEW100,0.00,VWS V13.00,2013-05-16 20:20:00,
2013-05-16 16:25:00,80.2,48.5,29.72,West,274,3.1,8.3,33,0.00,,FEW100,0.00,VWS V13.00,2013-05-16 20:25:00,
2013-05-16 16:30:00,79.5,47.9,29.72,South,189,4.0,8.3,33,0.00,,FEW100,0.00,VWS V13.00,2013-05-16 20:30:00,
2013-05-16 16:35:00,79.2,48.4,29.72,NW,324,3.1,8.3,34,0.00,,CLR,0.00,VWS V13.00,2013-05-16 20:35:00,
2013-05-16 16:40:00,79.0,48.2,29.72,WSW,252,0.0,0.0,34,0.00,,CLR,0.00,VWS V13.00,2013-05-16 20:40:00,
2013-05-16 16:45:00,78.6,48.7,29.72,West,275,2.7,5.4,35,0.00,,CLR,0.00,VWS V13.00,2013-05-16 20:45:00,
2013-05-16 16:50:00,78.3,48.4,29.72,NW,311,0.0,5.4,35,0.00,,CLR,0.00,VWS V13.00,2013-05-16 20:50:00,
2013-05-16 16:55:00,78.3,48.4,29.72,West,264,0.0,5.4,35,0.00,,CLR,0.00,VWS V13.00,2013-05-16 20:55:00,
2013-05-16 17:00:00,78.1,47.5,29.72,WNW,291,0.0,0.0,34,0.00,,CLR,0.00,VWS V13.00,2013-05-16 21:00:00,
2013-05-16 17:06:00,77.9,48.1,29.72,SW,223,0.0,0.0,35,0.00,,CLR,0.00,VWS V13.00,2013-05-16 21:06:00,
2013-05-16 17:11:00,77.9,48.8,29.72,ESE,113,2.2,4.0,36,0.00,,CLR,0.00,VWS V13.00,2013-05-16 21:11:00,
2013-05-16 17:16:00,77.9,48.8,29.72,SSW,211,2.7,4.9,36,0.00,,CLR,0.00,VWS V13.00,2013-05-16 21:16:00,
2013-05-16 17:21:00,78.4,49.3,29.72,ENE,62,0.0,2.7,36,0.00,,CLR,0.00,VWS V13.00,2013-05-16 21:21:00,
2013-05-16 17:26:00,78.8,48.9,29.72,South,184,0.0,6.3,35,0.00,,CLR,0.00,VWS V13.00,2013-05-16 21:26:00,
2013-05-16 17:31:00,79.2,47.6,29.72,East,92,2.7,6.3,33,0.00,,CLR,0.00,VWS V13.00,2013-05-16 21:31:00,
2013-05-16 17:36:00,78.8,48.1,29.72,SSW,196,5.8,6.3,34,0.00,,CLR,0.00,VWS V13.00,2013-05-16 21:36:00,
2013-05-16 17:41:00,79.0,46.6,29.72,WSW,255,3.1,5.4,32,0.00,,CLR,0.00,VWS V13.00,2013-05-16 21:41:00,
2013-05-16 17:46:00,79.2,46.0,29.72,WNW,284,0.0,8.1,31,0.00,,CLR,0.00,VWS V13.00,2013-05-16 21:46:00,
2013-05-16 17:51:00,79.3,46.1,29.72,WNW,287,4.0,10.1,31,0.00,,CLR,0.00,VWS V13.00,2013-05-16 21:51:00,
2013-05-16 17:56:00,79.3,45.2,29.72,WNW,289,4.0,10.1,30,0.00,,CLR,0.00,VWS V13.00,2013-05-16 21:56:00,
2013-05-16 18:01:00,79.2,45.1,29.72,SW,216,0.0,0.0,30,0.00,,CLR,0.00,VWS V13.00,2013-05-16 22:01:00,
2013-05-16 18:06:00,78.4,45.3,29.72,SW,216,0.0,0.0,31,0.00,,CLR,0.00,VWS V13.00,2013-05-16 22:06:00,
2013-05-16 18:11:00,78.3,45.2,29.72,SW,220,2.7,3.1,31,0.00,,CLR,0.00,VWS V13.00,2013-05-16 22:11:00,
2013-05-16 18:16:00,78.3,45.2,29.72,WSW,254,5.8,5.8,31,0.00,,CLR,0.00,VWS V13.00,2013-05-16 22:16:00,
2013-05-16 18:21:00,78.4,45.3,29.75,WNW,286,2.7,4.0,31,0.00,,CLR,0.00,VWS V13.00,2013-05-16 22:21:00,
2013-05-16 18:27:00,78.3,44.3,29.75,SW,220,0.0,7.6,30,0.00,,CLR,0.00,VWS V13.00,2013-05-16 22:27:00,
2013-05-16 18:31:00,78.1,44.2,29.75,WNW,285,2.7,7.6,30,0.00,,CLR,0.00,VWS V13.00,2013-05-16 22:31:00,
2013-05-16 18:36:00,78.1,44.2,29.75,West,270,0.0,7.6,30,0.00,,CLR,0.00,VWS V13.00,2013-05-16 22:36:00,
2013-05-16 18:42:00,77.9,44.0,29.75,SW,222,2.2,3.6,30,0.00,,CLR,0.00,VWS V13.00,2013-05-16 22:42:00,
2013-05-16 18:47:00,77.7,43.8,29.75,West,265,3.6,6.3,30,0.00,,CLR,0.00,VWS V13.00,2013-05-16 22:47:00,
2013-05-16 18:52:00,77.7,43.8,29.75,WNW,286,3.6,8.3,30,0.00,,CLR,0.00,VWS V13.00,2013-05-16 22:52:00,
2013-05-16 18:57:00,77.4,43.5,29.75,SW,232,0.0,8.3,30,0.00,,CLR,0.00,VWS V13.00,2013-05-16 22:57:00,
2013-05-16 19:02:00,76.8,43.9,29.75,WNW,292,0.0,6.3,31,0.00,,CLR,0.00,VWS V13.00,2013-05-16 23:02:00,
2013-05-16 19:07:00,76.5,43.6,29.75,SW,223,0.0,6.3,31,0.00,,CLR,0.00,VWS V13.00,2013-05-16 23:07:00,
2013-05-16 19:12:00,75.7,43.0,29.75,SW,223,0.0,6.3,31,0.00,,CLR,0.00,VWS V13.00,2013-05-16 23:12:00,
2013-05-16 19:17:00,75.2,43.3,29.75,West,264,0.0,6.3,32,0.00,,CLR,0.00,VWS V13.00,2013-05-16 23:17:00,
2013-05-16 19:22:00,74.7,42.9,29.75,West,264,0.0,0.0,32,0.00,,CLR,0.00,VWS V13.00,2013-05-16 23:22:00,
2013-05-16 19:27:00,74.3,43.4,29.75,West,264,0.0,0.0,33,0.00,,CLR,0.00,VWS V13.00,2013-05-16 23:27:00,
2013-05-16 19:32:00,73.9,43.0,29.75,West,264,0.0,0.0,33,0.00,,CLR,0.00,VWS V13.00,2013-05-16 23:32:00,
2013-05-16 19:37:00,73.8,42.9,29.75,West,264,0.0,0.0,33,0.00,,CLR,0.00,VWS V13.00,2013-05-16 23:37:00,
2013-05-16 19:42:00,73.4,43.3,29.75,West,264,0.0,0.0,34,0.00,,CLR,0.00,VWS V13.00,2013-05-16 23:42:00,
2013-05-16 19:48:00,72.9,43.6,29.75,West,264,0.0,0.0,35,0.00,,CLR,0.00,VWS V13.00,2013-05-16 23:48:00,
2013-05-16 19:53:00,72.5,44.1,29.75,West,264,0.0,0.0,36,0.00,,CLR,0.00,VWS V13.00,2013-05-16 23:53:00,
2013-05-16 19:58:00,72.1,44.5,29.75,West,264,0.0,0.0,37,0.00,,CLR,0.00,VWS V13.00,2013-05-16 23:58:00,
2013-05-16 20:03:00,71.8,44.1,29.75,West,264,0.0,0.0,37,0.00,,CLR,0.00,VWS V13.00,2013-05-17 00:03:00,
2013-05-16 20:08:00,71.6,44.0,29.78,West,264,0.0,0.0,37,0.00,,-RA,0.00,VWS V13.00,2013-05-17 00:08:00,
2013-05-16 20:13:00,71.1,43.5,29.78,West,264,0.0,0.0,37,0.00,,-RA,0.00,VWS V13.00,2013-05-17 00:13:00,
2013-05-16 20:18:00,70.7,43.9,29.78,West,264,0.0,0.0,38,0.00,,-RA,0.00,VWS V13.00,2013-05-17 00:18:00,
2013-05-16 20:23:00,70.3,44.9,29.78,West,264,0.0,0.0,40,0.00,,-RA,0.00,VWS V13.00,2013-05-17 00:23:00,
2013-05-16 20:28:00,70.0,45.9,29.78,WNW,298,0.0,3.6,42,0.00,,-RA,0.00,VWS V13.00,2013-05-17 00:28:00,
2013-05-16 20:33:00,69.6,44.9,29.78,WNW,298,0.0,3.6,41,0.00,,-RA,0.00,VWS V13.00,2013-05-17 00:33:00,
2013-05-16 20:38:00,69.4,44.1,29.78,WNW,297,0.0,3.6,40,0.00,,-RA,0.00,VWS V13.00,2013-05-17 00:38:00,
2013-05-16 20:43:00,69.3,43.9,29.78,WNW,297,0.0,0.0,40,0.00,,-RA,0.00,VWS V13.00,2013-05-17 00:43:00,
2013-05-16 20:48:00,69.1,43.1,29.78,WNW,297,0.0,0.0,39,0.00,,-RA,0.00,VWS V13.00,2013-05-17 00:48:00,
2013-05-16 20:53:00,68.7,43.5,29.78,WNW,297,0.0,0.0,40,0.00,,-RA,0.00,VWS V13.00,2013-05-17 00:53:00,
2013-05-16 20:59:00,68.5,43.3,29.78,WNW,297,0.0,0.0,40,0.00,,-RA,0.00,VWS V13.00,2013-05-17 00:59:00,
2013-05-16 21:04:00,68.2,42.3,29.78,WNW,297,0.0,0.0,39,0.00,,-RA,0.00,VWS V13.00,2013-05-17 01:04:00,
2013-05-16 21:09:00,67.6,44.4,29.80,WNW,297,0.0,0.0,43,0.00,,-RA,0.00,VWS V13.00,2013-05-17 01:09:00,
2013-05-16 21:14:00,67.5,44.2,29.80,WNW,297,0.0,0.0,43,0.00,,-RA,0.00,VWS V13.00,2013-05-17 01:14:00,
2013-05-16 21:19:00,67.1,43.9,29.80,WNW,297,0.0,0.0,43,0.00,,-RA,0.00,VWS V13.00,2013-05-17 01:19:00,
2013-05-16 21:24:00,66.9,43.1,29.80,WNW,297,0.0,0.0,42,0.00,,-RA,0.00,VWS V13.00,2013-05-17 01:24:00,
2013-05-16 21:29:00,66.7,42.3,29.80,WNW,297,0.0,0.0,41,0.00,,-RA,0.00,VWS V13.00,2013-05-17 01:29:00,
2013-05-16 21:34:00,66.4,42.0,29.80,WNW,297,0.0,0.0,41,0.00,,-RA,0.00,VWS V13.00,2013-05-17 01:34:00,
2013-05-16 21:39:00,66.2,41.8,29.80,WNW,297,0.0,0.0,41,0.00,,CLR,0.00,VWS V13.00,2013-05-17 01:39:00,
2013-05-16 21:44:00,66.0,41.7,29.80,WNW,297,0.0,0.0,41,0.00,,CLR,0.00,VWS V13.00,2013-05-17 01:44:00,
2013-05-16 21:49:00,65.7,42.0,29.80,WNW,297,0.0,0.0,42,0.00,,CLR,0.00,VWS V13.00,2013-05-17 01:49:00,
2013-05-16 21:54:00,65.5,41.8,29.80,WNW,297,0.0,0.0,42,0.00,,CLR,0.00,VWS V13.00,2013-05-17 01:54:00,
2013-05-16 21:59:00,65.3,42.2,29.80,WNW,297,0.0,0.0,43,0.00,,CLR,0.00,VWS V13.00,2013-05-17 01:59:00,
2013-05-16 22:04:00,65.1,41.5,29.80,SSW,207,0.0,2.2,42,0.00,,CLR,0.00,VWS V13.00,2013-05-17 02:04:00,
2013-05-16 22:09:00,65.1,41.5,29.83,SSW,207,0.0,2.2,42,0.00,,CLR,0.00,VWS V13.00,2013-05-17 02:09:00,
2013-05-16 22:14:00,64.9,40.7,29.83,SW,214,0.0,3.1,41,0.00,,CLR,0.00,VWS V13.00,2013-05-17 02:14:00,
2013-05-16 22:20:00,64.8,40.5,29.83,SW,214,0.0,3.1,41,0.00,,CLR,0.00,VWS V13.00,2013-05-17 02:20:00,
2013-05-16 22:25:00,64.6,40.4,29.83,SW,214,0.0,0.0,41,0.00,,CLR,0.00,VWS V13.00,2013-05-17 02:25:00,
2013-05-16 22:30:00,64.2,41.3,29.83,South,169,0.0,3.1,43,0.00,,CLR,0.00,VWS V13.00,2013-05-17 02:30:00,
2013-05-16 22:35:00,64.0,40.5,29.83,South,169,0.0,3.1,42,0.00,,CLR,0.00,VWS V13.00,2013-05-17 02:35:00,
2013-05-16 22:40:00,64.2,40.0,29.83,WSW,238,3.1,4.0,41,0.00,,CLR,0.00,VWS V13.00,2013-05-17 02:40:00,
2013-05-16 22:45:00,64.0,40.5,29.83,SSW,200,0.0,3.1,42,0.00,,CLR,0.00,VWS V13.00,2013-05-17 02:45:00,
2013-05-16 22:50:00,64.6,39.1,29.83,South,183,2.2,3.6,39,0.00,,CLR,0.00,VWS V13.00,2013-05-17 02:50:00,
2013-05-16 22:55:00,64.4,38.9,29.83,South,183,0.0,3.6,39,0.00,,CLR,0.00,VWS V13.00,2013-05-17 02:55:00,
2013-05-16 23:00:00,64.4,38.3,29.83,SSW,204,0.0,3.6,38,0.00,,CLR,0.00,VWS V13.00,2013-05-17 03:00:00,
2013-05-16 23:05:00,64.4,38.3,29.83,WNW,294,0.0,4.0,38,0.00,,CLR,0.00,VWS V13.00,2013-05-17 03:05:00,
2013-05-16 23:10:00,64.4,38.3,29.83,WSW,239,0.0,4.0,38,0.00,,CLR,0.00,VWS V13.00,2013-05-17 03:10:00,
2013-05-16 23:15:00,64.4,38.3,29.83,SW,221,0.0,4.0,38,0.00,,CLR,0.00,VWS V13.00,2013-05-17 03:15:00,
2013-05-16 23:20:00,64.4,38.3,29.83,SSW,201,0.0,0.0,38,0.00,,CLR,0.00,VWS V13.00,2013-05-17 03:20:00,
2013-05-16 23:25:00,64.4,38.3,29.83,South,179,0.0,2.7,38,0.00,,CLR,0.00,VWS V13.00,2013-05-17 03:25:00,
2013-05-16 23:30:00,64.4,38.3,29.83,SSW,195,0.0,5.8,38,0.00,,CLR,0.00,VWS V13.00,2013-05-17 03:30:00,
2013-05-16 23:36:00,64.4,38.3,29.83,West,277,0.0,5.8,38,0.00,,CLR,0.00,VWS V13.00,2013-05-17 03:36:00,
2013-05-16 23:41:00,64.4,38.3,29.83,SSE,149,0.0,2.7,38,0.00,,CLR,0.00,VWS V13.00,2013-05-17 03:41:00,
2013-05-16 23:46:00,64.4,38.3,29.83,ESE,119,0.0,3.1,38,0.00,,CLR,0.00,VWS V13.00,2013-05-17 03:46:00,
2013-05-16 23:51:00,64.4,38.3,29.83,SSW,207,0.0,3.1,38,0.00,,CLR,0.00,VWS V13.00,2013-05-17 03:51:00,
2013-05-16 23:56:00,64.4,38.3,29.83,South,173,3.6,3.6,38,0.00,,CLR,0.00,VWS V13.00,2013-05-17 03:56:00,